ADDS METAR Data INFO
IDs: Format: Raw Decoded Include TAF

Data at: 0106 UTC 21 Oct 2017

KBEH 210053Z AUTO 17005KT 10SM CLR 18/09 A3009 RMK AO2 SLP190 T01830094
KBEH 202353Z AUTO 16004KT 10SM CLR 20/09 A3009 RMK AO2 SLP190 T02000094 10256 20200 55003
KBEH 202253Z AUTO 15004KT 10SM CLR 21/09 A3009 RMK AO2 SLP187 T02110094
KBEH 202153Z AUTO 17006KT 10SM CLR 24/11 A3009 RMK AO2 SLP189 T02390106
KBEH 202053Z AUTO 17006KT 10SM CLR 24/10 A3010 RMK AO2 SLP191 T02440100 56014
KBEH 201953Z AUTO 18007KT 10SM CLR 26/09 A3011 RMK AO2 SLP197 T02560094
KBEH 201853Z AUTO 22011KT 10SM CLR 26/10 A3013 RMK AO2 SLP201 T02560100
KBEH 201753Z AUTO 18009G15KT 10SM CLR 24/10 A3014 RMK AO2 SLP207 T02440100 10244 20089 58021
KBEH 201653Z AUTO 20008G17KT 10SM CLR 23/10 A3018 RMK AO2 SLP219 T02280100
KBEH 201553Z AUTO 18008KT 10SM CLR 21/11 A3020 RMK AO2 SLP226 T02110106
KBEH 201453Z AUTO 16007KT 10SM CLR 18/10 A3021 RMK AO2 SLP230 T01780100 50002
KBEH 201353Z AUTO 16007KT 10SM CLR 14/09 A3021 RMK AO2 SLP234 T01440089
KBEH 201253Z AUTO 14004KT 10SM CLR 11/07 A3021 RMK AO2 SLP232 T01110067
KBEH 201153Z AUTO 13003KT 10SM CLR 09/04 A3020 RMK AO2 SLP229 T00940044 10111 20056 51008
KBEH 201053Z AUTO 13003KT 10SM CLR 11/03 A3020 RMK AO2 SLP226 T01060033
KBEH 200953Z AUTO 15004KT 10SM CLR 11/03 A3019 RMK AO2 SLP223 T01060028
KBEH 200853Z AUTO 15006KT 10SM CLR 11/02 A3018 RMK AO2 SLP219 T01060017 55001
KBEH 200753Z AUTO 13003KT 10SM CLR 09/02 A3017 RMK AO2 SLP218 T00890017
KBEH 200653Z AUTO 13003KT 10SM CLR 07/02 A3018 RMK AO2 SLP220 T00720022
KBEH 200553Z AUTO 00000KT 10SM CLR 06/03 A3018 RMK AO2 SLP221 T00610033 10094 20050 56003
KBEH 200453Z AUTO 08003KT 10SM CLR 06/03 A3018 RMK AO2 SLP221 T00560033 401780050
KBEH 200353Z AUTO 09003KT 10SM CLR 06/04 A3018 RMK AO2 SLP222 T00610039
KBEH 200253Z AUTO 07003KT 10SM CLR 06/04 A3019 RMK AO2 SLP224 T00610044 50001
KBEH 200153Z AUTO 00000KT 10SM CLR 07/04 A3019 RMK AO2 SLP225 T00670044
KBEH 200053Z AUTO 00000KT 10SM CLR 08/04 A3019 RMK AO2 SLP225 T00780044
KBEH 192353Z AUTO 00000KT 10SM CLR 10/05 A3019 RMK AO2 SLP223 T01000050 10178 20100 53002
KBEH 192253Z AUTO 00000KT 10SM CLR 11/05 A3018 RMK AO2 SLP222 T01110050
KBEH 192153Z AUTO 27003KT 10SM CLR 15/04 A3018 RMK AO2 SLP220 T01500044
KBEH 192053Z AUTO 27004KT 10SM CLR 17/02 A3018 RMK AO2 SLP220 T01670017 56001
KBEH 191953Z AUTO VRB04KT 10SM CLR 17/01 A3018 RMK AO2 SLP220 T01670006
KBEH 191853Z AUTO 30006KT 10SM CLR 17/01 A3018 RMK AO2 SLP220 T01670011
KBEH 191753Z AUTO 30008KT 10SM CLR 17/02 A3019 RMK AO2 SLP221 T01670017 10172 20122 50011
KBEH 191653Z AUTO VRB04KT 10SM CLR 17/03 A3019 RMK AO2 SLP222 T01720028
KBEH 191553Z AUTO 31007KT 10SM CLR 17/03 A3018 RMK AO2 SLP218 T01670033
KBEH 191453Z AUTO 30007KT 10SM CLR 16/03 A3015 RMK AO2 SLP210 T01610033 51022
KBEH 191353Z AUTO 30006KT 10SM CLR 16/08 A3014 RMK AO2 SLP206 T01560078